Relevés horaires Schaffen (Belgique)


Relevés horaires à Schaffen - Jeudi 30 Avr. 2026
Heure UTC1 Température [°C] Vent [km/h] Hum. [%] Pres.4 [hPa] Visi. [Km] Nébu. [octa] Préc.5 [mm] Cond.
2m. Res. Ros. Dir.2 Vit. Moy. Raf.3
23:00 12.9 12.9 -4.9 E 3.7 -- 7.4 29 1025(0.4/3h) >70 -- -- --
22:00 13.8 13.8 -5.0 ESE 5.6 -- 11.1 27 1024.9(1.0/3h) >70 -- -- --
21:00 15.1 15.1 -5.6 ESE 5.6 -- 20.4 23 1024.5(1.0/3h) >70 -- -- --
20:00 16.4 16.4 -6.1 E 7.4 -- 14.8 21 1024.4(0.7/3h) >70 -- -- --
19:00 17.2 17.2 -6.9 ESE 9.3 -- 20.4 19 1023.8(0.2/3h) >70 -- -- --
18:00 18.6 18.6 -7.8 E 13.0 -- 22.2 16 1023.5(-0.4/3h) >70 -- -- --
17:00 19.2 19.2 -8.2 ESE 13.0 -- 22.2 15 1023.6(-0.5/3h) >70 -- -- --
16:00 19.7 19.7 -6.8 ESE 11.1 -- 22.2 16 1023.6(-1.1/3h) >70 -- -- --
15:00 19.4 19.4 -7.0 E 13.0 -- 22.2 16 1023.7(-1.3/3h) >70 -- -- --
14:00 19.4 19.4 -6.1 E 13.0 -- 20.4 17 1024.2(-1.6/3h) >70 -- -- --
13:00 18.4 18.4 -6.1 E 13.0 -- 22.2 18 1024.7(-1.3/3h) >70 -- -- --
12:00 18.4 18.4 -5.4 ESE 13.0 -- 22.2 19 1025.2(-1.0/3h) >70 -- -- --
11:00 16.5 16.3 -5.3 E 11.1 -- 20.4 22 1025.7(-0.7/3h) >70 -- -- --
10:00 15.7 15.5 -3.4 E 9.3 -- 18.5 27 1026.2(-0.5/3h) >70 -- -- --
09:00 14.5 14.4 -3.7 E 7.4 -- 16.7 28 1026.4(-0.4/3h) >70 -- -- --
08:00 13.3 13 -3.0 E 7.4 -- 14.8 32 1026.7(0.2/3h) >70 -- -- --
07:00 11.4 10.8 -3.3 ESE 7.4 -- 14.8 36 1026.9(0.6/3h) >70 -- -- --
06:00 9.6 8.7 -3.4 E 7.4 -- 14.8 40 1026.9(0.6/3h) >70 -- -- --
05:00 8.1 7.4 -3.3 E 5.6 -- 11.1 44 1026.5(0.3/3h) >70 -- -- --
04:00 8.0 7.3 -3.2 E 5.6 -- 11.1 45 1026.2(0.1/3h) >70 -- -- --
03:00 8.8 8.2 -3.3 E 5.6 -- 14.8 42 1026.2(0.1/3h) >70 -- -- --
02:00 9.9 9.5 -3.1 E 5.6 -- 14.8 40 1026.2(0.4/3h) >70 -- -- --
01:00 10.9 10.2 -3.2 E 7.4 -- 14.8 37 1026.2(0.8/3h) >70 -- -- --
00:00 11.9 11.4 -3.2 E 7.4 -- 18.5 35 1026(1.1/3h) >70 -- -- --

1 Coordinated Universal Time. Actuellement il est 08:00 locale et 06:00 UTC.

2 Le vent souffle depuis la direction indiquée vers la direction oposée.

3 Les rafales max. sont disponible 40 min après l'heure du relevé.

4 Pour les stations d'altitude (plus de 600m) le géopotentiel du niveau le plus proche de la pression obligatoire est indiqué.

5 Les stations disposant d'un diffuseur peuvent indiquer "trace". Cela signifie que des précipitations ont touchés le sol mais que la quantité est inférieure à 0.1 mm.

Récapitulatif de la journée
Température [°C] Vent [km/h] Ensoleillement4 [h] Precipitations totale5 [mm] Pression [Hpa]
Min1 Max.2 Moy.3 Max. Min Max.
7.7 20.5 0 22.2 0 h 0 min 0 1023.5 1026.9

1 Température minimale relevée entre 18:00 UTC la veille et 18:00 UTC le jour donné.

2 Température maximale relevée entre 06:00 UTC le jour donné et 06:00 UTC le lendemain.

3 Vent moyen de la journée basé sur les relevés horaires.

4 Ensoleillement en heures relevé entre 06:00 UTC la veille et 06:00 UTC le jour donné.

5 Précipitations totales tombées entre 06:00 UTC la jour donné et 06:00 UTC le lendemain.

Graphiques horaires